sensor_id;sensor_type;location;lat;lon;timestamp;pressure;altitude;pressure_sealevel;temperature;humidity
75945;BME280;64628;50.104;14.614;2023-02-15T00:00:44;100297.64;;;5.28;43.80
75945;BME280;64628;50.104;14.614;2023-02-15T00:03:09;100299.96;;;5.39;43.69
75945;BME280;64628;50.104;14.614;2023-02-15T00:05:34;100295.87;;;5.62;43.69
75945;BME280;64628;50.104;14.614;2023-02-15T00:08:00;100293.65;;;5.68;43.55
75945;BME280;64628;50.104;14.614;2023-02-15T00:10:25;100290.75;;;5.42;43.60
75945;BME280;64628;50.104;14.614;2023-02-15T00:12:50;100288.01;;;5.49;43.46
75945;BME280;64628;50.104;14.614;2023-02-15T00:15:16;100284.71;;;5.45;43.54
75945;BME280;64628;50.104;14.614;2023-02-15T00:17:41;100284.95;;;5.39;43.64
75945;BME280;64628;50.104;14.614;2023-02-15T00:20:07;100283.29;;;5.56;43.76
75945;BME280;64628;50.104;14.614;2023-02-15T00:22:32;100280.59;;;5.33;43.67
75945;BME280;64628;50.104;14.614;2023-02-15T00:24:58;100277.39;;;5.34;43.75
75945;BME280;64628;50.104;14.614;2023-02-15T00:27:23;100278.40;;;5.48;43.66
75945;BME280;64628;50.104;14.614;2023-02-15T00:29:49;100277.04;;;5.40;43.75
75945;BME280;64628;50.104;14.614;2023-02-15T00:32:15;100279.59;;;5.61;43.75
75945;BME280;64628;50.104;14.614;2023-02-15T00:34:45;100277.79;;;5.33;44.22
75945;BME280;64628;50.104;14.614;2023-02-15T00:37:05;100277.76;;;5.30;43.96
75945;BME280;64628;50.104;14.614;2023-02-15T00:39:31;100277.61;;;5.68;43.72
75945;BME280;64628;50.104;14.614;2023-02-15T00:41:57;100273.24;;;5.67;43.69
75945;BME280;64628;50.104;14.614;2023-02-15T00:44:22;100272.39;;;5.45;43.60
75945;BME280;64628;50.104;14.614;2023-02-15T00:46:48;100271.18;;;5.32;44.06
75945;BME280;64628;50.104;14.614;2023-02-15T00:49:14;100268.34;;;5.34;43.98
75945;BME280;64628;50.104;14.614;2023-02-15T00:51:39;100266.27;;;4.98;44.26
75945;BME280;64628;50.104;14.614;2023-02-15T00:54:05;100268.99;;;5.16;44.04
75945;BME280;64628;50.104;14.614;2023-02-15T00:56:30;100266.26;;;5.18;43.96
75945;BME280;64628;50.104;14.614;2023-02-15T00:58:56;100264.84;;;5.18;44.08
75945;BME280;64628;50.104;14.614;2023-02-15T01:01:22;100263.77;;;5.67;44.03
75945;BME280;64628;50.104;14.614;2023-02-15T01:03:47;100264.72;;;5.21;44.01
75945;BME280;64628;50.104;14.614;2023-02-15T01:06:12;100265.67;;;5.14;44.50
75945;BME280;64628;50.104;14.614;2023-02-15T01:08:37;100263.98;;;4.97;44.40
75945;BME280;64628;50.104;14.614;2023-02-15T01:11:05;100259.03;;;5.01;44.40
75945;BME280;64628;50.104;14.614;2023-02-15T01:13:28;100257.89;;;5.48;44.29
75945;BME280;64628;50.104;14.614;2023-02-15T01:15:54;100255.93;;;5.55;44.31
75945;BME280;64628;50.104;14.614;2023-02-15T01:18:19;100255.41;;;4.96;44.36
75945;BME280;64628;50.104;14.614;2023-02-15T01:20:45;100250.72;;;5.10;44.19
75945;BME280;64628;50.104;14.614;2023-02-15T01:23:10;100250.96;;;5.40;44.12
75945;BME280;64628;50.104;14.614;2023-02-15T01:25:36;100247.34;;;5.12;44.21
75945;BME280;64628;50.104;14.614;2023-02-15T01:28:01;100245.91;;;5.36;44.23
75945;BME280;64628;50.104;14.614;2023-02-15T01:30:27;100246.42;;;5.18;44.35
75945;BME280;64628;50.104;14.614;2023-02-15T01:32:52;100242.75;;;5.33;44.23
75945;BME280;64628;50.104;14.614;2023-02-15T01:35:18;100241.74;;;5.04;44.64
75945;BME280;64628;50.104;14.614;2023-02-15T01:37:43;100235.46;;;4.93;44.84
75945;BME280;64628;50.104;14.614;2023-02-15T01:40:14;100229.77;;;4.75;45.22
75945;BME280;64628;50.104;14.614;2023-02-15T01:42:35;100229.43;;;5.03;45.16
75945;BME280;64628;50.104;14.614;2023-02-15T01:45:02;100226.59;;;5.20;44.94
75945;BME280;64628;50.104;14.614;2023-02-15T01:47:32;100224.27;;;4.85;45.06
75945;BME280;64628;50.104;14.614;2023-02-15T01:49:57;100218.28;;;5.07;45.13
75945;BME280;64628;50.104;14.614;2023-02-15T01:52:18;100214.04;;;4.59;45.54
75945;BME280;64628;50.104;14.614;2023-02-15T01:54:44;100211.01;;;5.02;45.27
75945;BME280;64628;50.104;14.614;2023-02-15T01:57:10;100208.59;;;4.97;45.39
75945;BME280;64628;50.104;14.614;2023-02-15T01:59:33;100207.27;;;4.54;46.22
75945;BME280;64628;50.104;14.614;2023-02-15T02:01:59;100205.15;;;4.97;45.61
75945;BME280;64628;50.104;14.614;2023-02-15T02:04:28;100203.43;;;5.00;45.55
75945;BME280;64628;50.104;14.614;2023-02-15T02:06:50;100202.77;;;5.01;45.21
75945;BME280;64628;50.104;14.614;2023-02-15T02:09:14;100200.66;;;5.17;44.90
75945;BME280;64628;50.104;14.614;2023-02-15T02:11:40;100201.29;;;5.50;44.80
75945;BME280;64628;50.104;14.614;2023-02-15T02:14:06;100196.62;;;4.82;45.37
75945;BME280;64628;50.104;14.614;2023-02-15T02:16:39;100193.58;;;4.98;45.49
75945;BME280;64628;50.104;14.614;2023-02-15T02:21:41;100187.68;;;4.97;45.51
75945;BME280;64628;50.104;14.614;2023-02-15T02:26:33;100184.81;;;4.60;46.11
75945;BME280;64628;50.104;14.614;2023-02-15T02:28:54;100182.62;;;4.93;45.69
75945;BME280;64628;50.104;14.614;2023-02-15T02:31:20;100180.02;;;4.72;45.91
75945;BME280;64628;50.104;14.614;2023-02-15T02:33:40;100182.78;;;5.04;45.60
75945;BME280;64628;50.104;14.614;2023-02-15T02:36:02;100183.46;;;5.00;45.06
75945;BME280;64628;50.104;14.614;2023-02-15T02:38:26;100183.28;;;4.89;44.87
75945;BME280;64628;50.104;14.614;2023-02-15T02:40:52;100181.19;;;4.83;44.91
75945;BME280;64628;50.104;14.614;2023-02-15T02:43:17;100181.47;;;4.97;44.86
75945;BME280;64628;50.104;14.614;2023-02-15T02:45:40;100177.95;;;5.00;44.69
75945;BME280;64628;50.104;14.614;2023-02-15T02:48:05;100175.94;;;5.26;44.64
75945;BME280;64628;50.104;14.614;2023-02-15T02:50:29;100177.86;;;5.25;44.70
75945;BME280;64628;50.104;14.614;2023-02-15T02:52:54;100178.21;;;5.36;44.52
75945;BME280;64628;50.104;14.614;2023-02-15T02:55:21;100177.76;;;4.94;44.74
75945;BME280;64628;50.104;14.614;2023-02-15T02:57:48;100180.19;;;4.79;44.97
75945;BME280;64628;50.104;14.614;2023-02-15T03:00:10;100180.32;;;5.04;45.16
75945;BME280;64628;50.104;14.614;2023-02-15T03:02:37;100182.13;;;4.89;45.00
75945;BME280;64628;50.104;14.614;2023-02-15T03:05:03;100182.50;;;5.40;44.90
75945;BME280;64628;50.104;14.614;2023-02-15T03:07:27;100176.22;;;5.11;44.89
75945;BME280;64628;50.104;14.614;2023-02-15T03:09:52;100175.30;;;5.20;45.12
75945;BME280;64628;50.104;14.614;2023-02-15T03:12:19;100173.32;;;5.28;45.16
75945;BME280;64628;50.104;14.614;2023-02-15T03:14:43;100171.83;;;4.97;44.84
75945;BME280;64628;50.104;14.614;2023-02-15T03:17:08;100171.50;;;5.14;45.04
75945;BME280;64628;50.104;14.614;2023-02-15T03:19:34;100172.83;;;5.18;44.92
75945;BME280;64628;50.104;14.614;2023-02-15T03:22:00;100171.92;;;5.15;44.95
75945;BME280;64628;50.104;14.614;2023-02-15T03:24:25;100172.22;;;5.37;45.08
75945;BME280;64628;50.104;14.614;2023-02-15T03:26:50;100167.67;;;5.47;44.97
75945;BME280;64628;50.104;14.614;2023-02-15T03:29:15;100171.24;;;5.32;44.73
75945;BME280;64628;50.104;14.614;2023-02-15T03:31:42;100169.15;;;5.52;44.73
75945;BME280;64628;50.104;14.614;2023-02-15T03:34:07;100171.37;;;5.36;44.61
75945;BME280;64628;50.104;14.614;2023-02-15T03:36:32;100170.11;;;5.14;44.57
75945;BME280;64628;50.104;14.614;2023-02-15T03:38:59;100167.98;;;5.38;44.53
75945;BME280;64628;50.104;14.614;2023-02-15T03:41:23;100162.69;;;5.02;45.04
75945;BME280;64628;50.104;14.614;2023-02-15T03:43:51;100156.99;;;4.71;45.12
75945;BME280;64628;50.104;14.614;2023-02-15T03:46:15;100156.99;;;5.09;44.87
75945;BME280;64628;50.104;14.614;2023-02-15T03:48:38;100151.39;;;5.24;44.94
75945;BME280;64628;50.104;14.614;2023-02-15T03:51:04;100147.79;;;5.16;45.20
75945;BME280;64628;50.104;14.614;2023-02-15T03:53:26;100145.62;;;4.91;45.41
75945;BME280;64628;50.104;14.614;2023-02-15T03:55:54;100147.93;;;5.10;45.13
75945;BME280;64628;50.104;14.614;2023-02-15T03:58:17;100147.16;;;5.29;45.23
75945;BME280;64628;50.104;14.614;2023-02-15T04:00:47;100147.51;;;5.24;45.24
75945;BME280;64628;50.104;14.614;2023-02-15T04:03:15;100145.25;;;4.81;45.21
75945;BME280;64628;50.104;14.614;2023-02-15T04:05:33;100144.13;;;5.16;44.89
75945;BME280;64628;50.104;14.614;2023-02-15T04:07:59;100143.77;;;5.24;44.71
75945;BME280;64628;50.104;14.614;2023-02-15T04:10:24;100144.34;;;4.99;44.76
75945;BME280;64628;50.104;14.614;2023-02-15T04:12:49;100146.31;;;4.97;44.79
75945;BME280;64628;50.104;14.614;2023-02-15T04:15:15;100147.11;;;5.39;44.92
75945;BME280;64628;50.104;14.614;2023-02-15T04:17:40;100144.56;;;4.80;44.88
75945;BME280;64628;50.104;14.614;2023-02-15T04:20:07;100146.23;;;4.91;45.10
75945;BME280;64628;50.104;14.614;2023-02-15T04:22:31;100150.18;;;5.27;44.90
75945;BME280;64628;50.104;14.614;2023-02-15T04:24:57;100154.40;;;4.71;45.39
75945;BME280;64628;50.104;14.614;2023-02-15T04:27:23;100147.54;;;5.06;45.24
75945;BME280;64628;50.104;14.614;2023-02-15T04:29:49;100149.51;;;4.64;45.90
75945;BME280;64628;50.104;14.614;2023-02-15T04:32:14;100145.60;;;4.45;46.38
75945;BME280;64628;50.104;14.614;2023-02-15T04:34:40;100143.83;;;4.53;46.32
75945;BME280;64628;50.104;14.614;2023-02-15T04:37:05;100138.38;;;4.75;45.96
75945;BME280;64628;50.104;14.614;2023-02-15T04:39:31;100139.38;;;4.79;45.80
75945;BME280;64628;50.104;14.614;2023-02-15T04:41:56;100138.74;;;4.93;45.62
75945;BME280;64628;50.104;14.614;2023-02-15T04:44:22;100137.59;;;4.86;45.21
75945;BME280;64628;50.104;14.614;2023-02-15T04:46:48;100142.34;;;4.86;45.55
75945;BME280;64628;50.104;14.614;2023-02-15T04:49:13;100140.72;;;4.95;45.35
75945;BME280;64628;50.104;14.614;2023-02-15T04:51:39;100137.68;;;4.85;45.05
75945;BME280;64628;50.104;14.614;2023-02-15T04:54:04;100137.19;;;5.11;45.04
75945;BME280;64628;50.104;14.614;2023-02-15T04:56:30;100140.24;;;4.80;45.04
75945;BME280;64628;50.104;14.614;2023-02-15T04:58:55;100143.41;;;5.05;45.08
75945;BME280;64628;50.104;14.614;2023-02-15T05:01:21;100143.71;;;5.08;45.07
75945;BME280;64628;50.104;14.614;2023-02-15T05:03:47;100141.74;;;4.62;44.87
75945;BME280;64628;50.104;14.614;2023-02-15T05:06:12;100141.73;;;4.68;45.26
75945;BME280;64628;50.104;14.614;2023-02-15T05:08:37;100138.81;;;5.12;45.00
75945;BME280;64628;50.104;14.614;2023-02-15T05:11:03;100136.17;;;4.84;45.04
75945;BME280;64628;50.104;14.614;2023-02-15T05:13:29;100133.28;;;4.61;45.44
75945;BME280;64628;50.104;14.614;2023-02-15T05:15:54;100136.22;;;4.66;45.57
75945;BME280;64628;50.104;14.614;2023-02-15T05:18:21;100138.31;;;4.76;45.34
75945;BME280;64628;50.104;14.614;2023-02-15T05:20:46;100137.75;;;4.81;45.10
75945;BME280;64628;50.104;14.614;2023-02-15T05:23:11;100139.04;;;4.62;45.52
75945;BME280;64628;50.104;14.614;2023-02-15T05:25:36;100136.45;;;4.80;45.11
75945;BME280;64628;50.104;14.614;2023-02-15T05:28:01;100133.89;;;4.73;45.19
75945;BME280;64628;50.104;14.614;2023-02-15T05:30:27;100134.04;;;4.76;45.10
75945;BME280;64628;50.104;14.614;2023-02-15T05:32:53;100134.37;;;4.36;45.53
75945;BME280;64628;50.104;14.614;2023-02-15T05:35:18;100132.29;;;4.75;45.17
75945;BME280;64628;50.104;14.614;2023-02-15T05:37:43;100133.76;;;4.71;45.23
75945;BME280;64628;50.104;14.614;2023-02-15T05:40:09;100131.81;;;4.41;45.33
75945;BME280;64628;50.104;14.614;2023-02-15T05:42:35;100130.22;;;4.68;45.19
75945;BME280;64628;50.104;14.614;2023-02-15T05:45:00;100132.73;;;4.58;45.43
75945;BME280;64628;50.104;14.614;2023-02-15T05:47:25;100132.30;;;4.41;45.19
75945;BME280;64628;50.104;14.614;2023-02-15T05:49:51;100131.06;;;4.69;45.04
75945;BME280;64628;50.104;14.614;2023-02-15T05:52:16;100132.49;;;4.33;45.29
75945;BME280;64628;50.104;14.614;2023-02-15T05:54:42;100137.96;;;4.28;45.61
75945;BME280;64628;50.104;14.614;2023-02-15T05:57:07;100136.63;;;4.08;45.82
75945;BME280;64628;50.104;14.614;2023-02-15T05:59:32;100137.96;;;4.02;45.88
75945;BME280;64628;50.104;14.614;2023-02-15T06:01:58;100142.00;;;3.56;46.62
75945;BME280;64628;50.104;14.614;2023-02-15T06:04:23;100142.92;;;3.96;46.84
75945;BME280;64628;50.104;14.614;2023-02-15T06:06:49;100143.54;;;3.75;46.40
75945;BME280;64628;50.104;14.614;2023-02-15T06:09:14;100149.73;;;4.09;46.20
75945;BME280;64628;50.104;14.614;2023-02-15T06:11:40;100152.10;;;4.27;45.88
75945;BME280;64628;50.104;14.614;2023-02-15T06:14:05;100156.41;;;4.30;45.84
75945;BME280;64628;50.104;14.614;2023-02-15T06:16:31;100157.77;;;3.90;46.09
75945;BME280;64628;50.104;14.614;2023-02-15T06:18:57;100161.01;;;3.95;45.92
75945;BME280;64628;50.104;14.614;2023-02-15T06:21:22;100165.95;;;3.64;46.37
75945;BME280;64628;50.104;14.614;2023-02-15T06:23:48;100170.84;;;4.19;46.33
75945;BME280;64628;50.104;14.614;2023-02-15T06:26:13;100175.71;;;3.56;46.43
75945;BME280;64628;50.104;14.614;2023-02-15T06:28:39;100177.47;;;3.60;47.08
75945;BME280;64628;50.104;14.614;2023-02-15T06:31:04;100177.03;;;3.45;46.61
75945;BME280;64628;50.104;14.614;2023-02-15T06:33:29;100178.42;;;3.61;46.33
75945;BME280;64628;50.104;14.614;2023-02-15T06:35:55;100180.69;;;3.80;46.31
75945;BME280;64628;50.104;14.614;2023-02-15T06:38:20;100179.35;;;3.69;46.25
75945;BME280;64628;50.104;14.614;2023-02-15T06:40:46;100181.34;;;3.65;46.01
75945;BME280;64628;50.104;14.614;2023-02-15T06:43:11;100185.48;;;3.70;46.72
75945;BME280;64628;50.104;14.614;2023-02-15T06:45:37;100187.99;;;3.68;47.13
75945;BME280;64628;50.104;14.614;2023-02-15T06:48:03;100188.95;;;3.14;47.59
75945;BME280;64628;50.104;14.614;2023-02-15T06:50:28;100189.24;;;2.89;48.83
75945;BME280;64628;50.104;14.614;2023-02-15T06:52:56;100193.26;;;2.78;48.01
75945;BME280;64628;50.104;14.614;2023-02-15T06:55:20;100191.64;;;3.28;47.35
75945;BME280;64628;50.104;14.614;2023-02-15T06:57:45;100195.48;;;3.36;47.46
75945;BME280;64628;50.104;14.614;2023-02-15T07:00:11;100200.23;;;3.06;47.51
75945;BME280;64628;50.104;14.614;2023-02-15T07:02:36;100200.83;;;3.31;46.80
75945;BME280;64628;50.104;14.614;2023-02-15T07:05:02;100202.71;;;3.90;46.13
75945;BME280;64628;50.104;14.614;2023-02-15T07:07:27;100204.39;;;3.45;45.85
75945;BME280;64628;50.104;14.614;2023-02-15T07:09:53;100208.21;;;3.72;45.82
75945;BME280;64628;50.104;14.614;2023-02-15T07:12:18;100206.33;;;3.83;46.35
75945;BME280;64628;50.104;14.614;2023-02-15T07:14:43;100206.47;;;3.52;46.19
75945;BME280;64628;50.104;14.614;2023-02-15T07:17:09;100202.13;;;3.41;46.72
75945;BME280;64628;50.104;14.614;2023-02-15T07:19:35;100200.11;;;3.92;46.46
75945;BME280;64628;50.104;14.614;2023-02-15T07:22:00;100195.77;;;3.36;46.64
75945;BME280;64628;50.104;14.614;2023-02-15T07:24:25;100193.40;;;3.58;46.85
75945;BME280;64628;50.104;14.614;2023-02-15T07:26:51;100188.03;;;3.32;46.73
75945;BME280;64628;50.104;14.614;2023-02-15T07:29:17;100185.50;;;3.42;46.53
75945;BME280;64628;50.104;14.614;2023-02-15T07:31:43;100182.85;;;3.59;46.25
75945;BME280;64628;50.104;14.614;2023-02-15T07:34:08;100183.30;;;3.34;46.25
75945;BME280;64628;50.104;14.614;2023-02-15T07:36:34;100179.72;;;3.63;46.15
75945;BME280;64628;50.104;14.614;2023-02-15T07:38:59;100178.34;;;3.33;46.81
75945;BME280;64628;50.104;14.614;2023-02-15T07:41:25;100173.80;;;2.71;47.73
75945;BME280;64628;50.104;14.614;2023-02-15T07:43:56;100173.00;;;3.15;47.56
75945;BME280;64628;50.104;14.614;2023-02-15T07:46:17;100167.14;;;2.99;47.50
75945;BME280;64628;50.104;14.614;2023-02-15T07:48:42;100165.01;;;2.81;47.19
75945;BME280;64628;50.104;14.614;2023-02-15T07:51:09;100160.06;;;3.38;46.83
75945;BME280;64628;50.104;14.614;2023-02-15T07:53:33;100156.55;;;3.46;46.38
75945;BME280;64628;50.104;14.614;2023-02-15T07:55:59;100153.22;;;3.16;46.18
75945;BME280;64628;50.104;14.614;2023-02-15T07:58:23;100145.76;;;3.67;45.70
75945;BME280;64628;50.104;14.614;2023-02-15T08:00:49;100141.46;;;3.67;45.10
75945;BME280;64628;50.104;14.614;2023-02-15T08:03:14;100143.14;;;3.55;45.67
75945;BME280;64628;50.104;14.614;2023-02-15T08:05:40;100145.49;;;4.07;45.08
75945;BME280;64628;50.104;14.614;2023-02-15T08:08:05;100145.17;;;3.48;45.17
75945;BME280;64628;50.104;14.614;2023-02-15T08:10:31;100149.54;;;3.99;45.25
75945;BME280;64628;50.104;14.614;2023-02-15T08:12:56;100149.40;;;3.55;44.99
75945;BME280;64628;50.104;14.614;2023-02-15T08:15:21;100152.11;;;3.62;44.83
75945;BME280;64628;50.104;14.614;2023-02-15T08:17:47;100151.90;;;3.73;45.30
75945;BME280;64628;50.104;14.614;2023-02-15T08:20:13;100155.72;;;3.55;45.66
75945;BME280;64628;50.104;14.614;2023-02-15T08:22:39;100154.38;;;2.71;46.98
75945;BME280;64628;50.104;14.614;2023-02-15T08:25:04;100152.53;;;2.87;46.96
75945;BME280;64628;50.104;14.614;2023-02-15T08:27:30;100147.50;;;3.08;46.89
75945;BME280;64628;50.104;14.614;2023-02-15T08:29:55;100148.14;;;3.07;46.14
75945;BME280;64628;50.104;14.614;2023-02-15T08:32:20;100153.56;;;3.09;46.10
75945;BME280;64628;50.104;14.614;2023-02-15T08:34:46;100154.67;;;3.47;45.61
75945;BME280;64628;50.104;14.614;2023-02-15T08:37:12;100160.05;;;3.39;45.70
75945;BME280;64628;50.104;14.614;2023-02-15T08:39:38;100163.23;;;3.12;46.57
75945;BME280;64628;50.104;14.614;2023-02-15T08:42:03;100160.50;;;2.48;46.89
75945;BME280;64628;50.104;14.614;2023-02-15T08:44:28;100154.71;;;3.18;46.08
75945;BME280;64628;50.104;14.614;2023-02-15T08:46:53;100151.54;;;3.60;45.43
75945;BME280;64628;50.104;14.614;2023-02-15T08:49:20;100145.19;;;3.41;44.76
75945;BME280;64628;50.104;14.614;2023-02-15T08:51:45;100143.59;;;3.66;44.86
75945;BME280;64628;50.104;14.614;2023-02-15T08:54:13;100143.68;;;3.94;44.72
75945;BME280;64628;50.104;14.614;2023-02-15T08:56:38;100137.19;;;4.10;44.18
75945;BME280;64628;50.104;14.614;2023-02-15T08:59:02;100136.02;;;3.98;43.91
75945;BME280;64628;50.104;14.614;2023-02-15T09:01:28;100137.42;;;4.10;43.93
75945;BME280;64628;50.104;14.614;2023-02-15T09:03:57;100135.49;;;4.05;43.70
75945;BME280;64628;50.104;14.614;2023-02-15T09:06:18;100135.50;;;3.86;43.81
75945;BME280;64628;50.104;14.614;2023-02-15T09:08:43;100136.95;;;3.87;43.85
75945;BME280;64628;50.104;14.614;2023-02-15T09:11:10;100135.54;;;3.60;44.34
75945;BME280;64628;50.104;14.614;2023-02-15T09:13:34;100130.07;;;4.08;44.57
75945;BME280;64628;50.104;14.614;2023-02-15T09:16:00;100127.06;;;4.30;44.50
75945;BME280;64628;50.104;14.614;2023-02-15T09:18:24;100122.87;;;4.05;44.03
75945;BME280;64628;50.104;14.614;2023-02-15T09:20:50;100124.68;;;4.34;43.97
75945;BME280;64628;50.104;14.614;2023-02-15T09:23:15;100126.68;;;4.00;43.99
75945;BME280;64628;50.104;14.614;2023-02-15T09:25:41;100126.77;;;3.98;43.95
75945;BME280;64628;50.104;14.614;2023-02-15T09:28:06;100128.10;;;4.06;43.72
75945;BME280;64628;50.104;14.614;2023-02-15T09:30:33;100127.03;;;4.15;43.74
75945;BME280;64628;50.104;14.614;2023-02-15T09:32:58;100128.84;;;4.02;43.72
75945;BME280;64628;50.104;14.614;2023-02-15T09:35:23;100128.19;;;4.46;43.24
75945;BME280;64628;50.104;14.614;2023-02-15T09:37:48;100126.19;;;4.11;43.38
75945;BME280;64628;50.104;14.614;2023-02-15T09:40:16;100122.80;;;3.95;43.51
75945;BME280;64628;50.104;14.614;2023-02-15T09:42:51;100121.84;;;4.02;43.64
75945;BME280;64628;50.104;14.614;2023-02-15T09:45:14;100123.42;;;3.75;43.73
75945;BME280;64628;50.104;14.614;2023-02-15T09:47:43;100125.69;;;3.60;44.11
75945;BME280;64628;50.104;14.614;2023-02-15T09:50:00;100125.29;;;3.44;44.99
75945;BME280;64628;50.104;14.614;2023-02-15T09:52:33;100120.43;;;3.75;44.17
75945;BME280;64628;50.104;14.614;2023-02-15T09:54:57;100117.27;;;4.38;43.78
75945;BME280;64628;50.104;14.614;2023-02-15T09:57:19;100117.55;;;4.00;43.48
75945;BME280;64628;50.104;14.614;2023-02-15T09:59:45;100119.95;;;3.85;43.21
75945;BME280;64628;50.104;14.614;2023-02-15T10:02:16;100119.80;;;4.11;43.57
75945;BME280;64628;50.104;14.614;2023-02-15T10:04:42;100118.52;;;4.17;43.43
75945;BME280;64628;50.104;14.614;2023-02-15T10:07:03;100120.72;;;2.87;44.87
75945;BME280;64628;50.104;14.614;2023-02-15T10:09:31;100118.32;;;4.13;44.05
75945;BME280;64628;50.104;14.614;2023-02-15T10:11:55;100120.24;;;4.02;43.28
75945;BME280;64628;50.104;14.614;2023-02-15T10:14:22;100121.28;;;4.41;42.72
75945;BME280;64628;50.104;14.614;2023-02-15T10:16:41;100122.00;;;4.53;42.75
75945;BME280;64628;50.104;14.614;2023-02-15T10:19:07;100118.69;;;4.38;42.86
75945;BME280;64628;50.104;14.614;2023-02-15T10:21:39;100117.28;;;4.81;42.23
75945;BME280;64628;50.104;14.614;2023-02-15T10:24:04;100118.19;;;4.70;42.13
75945;BME280;64628;50.104;14.614;2023-02-15T10:26:19;100116.22;;;4.37;42.75
75945;BME280;64628;50.104;14.614;2023-02-15T10:28:46;100112.76;;;4.41;42.79
75945;BME280;64628;50.104;14.614;2023-02-15T10:31:16;100111.61;;;4.31;42.91
75945;BME280;64628;50.104;14.614;2023-02-15T10:33:38;100113.10;;;4.45;42.95
75945;BME280;64628;50.104;14.614;2023-02-15T10:36:07;100114.01;;;4.28;42.83
75945;BME280;64628;50.104;14.614;2023-02-15T10:38:30;100112.17;;;3.96;44.12
75945;BME280;64628;50.104;14.614;2023-02-15T10:41:05;100108.01;;;3.72;43.73
75945;BME280;64628;50.104;14.614;2023-02-15T10:43:27;100105.83;;;3.82;44.35
75945;BME280;64628;50.104;14.614;2023-02-15T10:45:49;100105.77;;;3.86;44.17
75945;BME280;64628;50.104;14.614;2023-02-15T10:48:21;100101.24;;;3.96;43.50
75945;BME280;64628;50.104;14.614;2023-02-15T10:50:45;100096.43;;;4.15;43.54
75945;BME280;64628;50.104;14.614;2023-02-15T10:53:08;100095.89;;;4.38;43.22
75945;BME280;64628;50.104;14.614;2023-02-15T10:55:31;100089.39;;;4.58;42.93
75945;BME280;64628;50.104;14.614;2023-02-15T10:57:55;100087.56;;;4.45;42.91
75945;BME280;64628;50.104;14.614;2023-02-15T11:00:19;100083.17;;;4.67;42.70
75945;BME280;64628;50.104;14.614;2023-02-15T11:02:53;100083.79;;;4.47;42.70
75945;BME280;64628;50.104;14.614;2023-02-15T11:05:19;100083.24;;;3.58;44.91
75945;BME280;64628;50.104;14.614;2023-02-15T11:07:35;100079.77;;;3.80;44.43
75945;BME280;64628;50.104;14.614;2023-02-15T11:10:02;100076.47;;;4.19;43.58
75945;BME280;64628;50.104;14.614;2023-02-15T11:12:23;100073.33;;;4.74;42.38
75945;BME280;64628;50.104;14.614;2023-02-15T11:14:50;100073.81;;;4.94;41.98
75945;BME280;64628;50.104;14.614;2023-02-15T11:17:14;100068.93;;;4.73;41.96
75945;BME280;64628;50.104;14.614;2023-02-15T11:19:41;100067.06;;;5.16;41.56
75945;BME280;64628;50.104;14.614;2023-02-15T11:22:04;100064.12;;;5.05;41.81
75945;BME280;64628;50.104;14.614;2023-02-15T11:24:29;100061.70;;;5.46;41.06
75945;BME280;64628;50.104;14.614;2023-02-15T11:26:57;100062.15;;;4.85;42.19
75945;BME280;64628;50.104;14.614;2023-02-15T11:29:23;100056.07;;;4.90;42.35
75945;BME280;64628;50.104;14.614;2023-02-15T11:31:45;100052.98;;;5.30;41.76
75945;BME280;64628;50.104;14.614;2023-02-15T11:34:13;100049.46;;;5.52;40.82
75945;BME280;64628;50.104;14.614;2023-02-15T11:36:36;100048.18;;;5.61;40.13
75945;BME280;64628;50.104;14.614;2023-02-15T11:39:02;100048.04;;;5.64;40.16
75945;BME280;64628;50.104;14.614;2023-02-15T11:41:28;100045.14;;;5.81;39.69
75945;BME280;64628;50.104;14.614;2023-02-15T11:43:55;100045.22;;;5.57;40.02
75945;BME280;64628;50.104;14.614;2023-02-15T11:46:15;100043.32;;;5.62;39.92
75945;BME280;64628;50.104;14.614;2023-02-15T11:48:42;100040.91;;;5.78;39.82
75945;BME280;64628;50.104;14.614;2023-02-15T11:51:08;100038.27;;;5.58;39.93
75945;BME280;64628;50.104;14.614;2023-02-15T11:53:35;100039.79;;;5.70;39.97
75945;BME280;64628;50.104;14.614;2023-02-15T11:55:57;100037.25;;;5.77;39.64
75945;BME280;64628;50.104;14.614;2023-02-15T11:58:29;100032.07;;;5.43;40.01
75945;BME280;64628;50.104;14.614;2023-02-15T12:00:51;100026.44;;;5.58;39.95
75945;BME280;64628;50.104;14.614;2023-02-15T12:03:18;100024.49;;;5.63;39.99
75945;BME280;64628;50.104;14.614;2023-02-15T12:05:42;100026.70;;;5.66;39.62
75945;BME280;64628;50.104;14.614;2023-02-15T12:08:12;100027.25;;;6.06;39.67
75945;BME280;64628;50.104;14.614;2023-02-15T12:10:33;100025.40;;;6.00;39.46
75945;BME280;64628;50.104;14.614;2023-02-15T12:15:30;100020.85;;;6.13;39.55
75945;BME280;64628;50.104;14.614;2023-02-15T12:17:50;100015.78;;;5.74;39.74
75945;BME280;64628;50.104;14.614;2023-02-15T12:20:23;100010.53;;;5.63;40.01
75945;BME280;64628;50.104;14.614;2023-02-15T12:22:37;100007.47;;;5.67;39.89
75945;BME280;64628;50.104;14.614;2023-02-15T12:27:30;99997.62;;;5.98;39.91
75945;BME280;64628;50.104;14.614;2023-02-15T12:29:57;99994.06;;;6.25;39.57
75945;BME280;64628;50.104;14.614;2023-02-15T12:32:23;99992.63;;;6.12;39.00
75945;BME280;64628;50.104;14.614;2023-02-15T12:34:46;99991.23;;;6.12;39.11
75945;BME280;64628;50.104;14.614;2023-02-15T12:37:17;99989.34;;;6.38;39.05
75945;BME280;64628;50.104;14.614;2023-02-15T12:39:37;99984.13;;;6.20;39.35
75945;BME280;64628;50.104;14.614;2023-02-15T12:42:05;99984.87;;;5.62;40.02
75945;BME280;64628;50.104;14.614;2023-02-15T12:44:28;99981.71;;;5.94;39.75
75945;BME280;64628;50.104;14.614;2023-02-15T12:46:57;99976.38;;;6.15;39.16
75945;BME280;64628;50.104;14.614;2023-02-15T12:49:19;99973.32;;;6.10;39.31